Time;durP1;ratioP1;P1;durP2;ratioP2;P2;SDS_P1;SDS_P2;PMS_P1;PMS_P2;Temp;Humidity;BMP_temperature;BMP_pressure;BME280_temperature;BME280_humidity;BME280_pressure;Samples;Min_cycle;Max_cycle;Signal;HPM_P1;HPM_P2
2021/05/26 00:00:14;;;;;;;2.78;0.82;;;16.80;41.50;;;;;;6257815;28;20029;-77
2021/05/26 00:03:15;;;;;;;1.67;0.95;;;16.80;41.60;;;;;;6273095;28;20037;-78
2021/05/26 00:06:16;;;;;;;1.67;0.90;;;16.80;41.50;;;;;;6290364;28;20029;-79
2021/05/26 00:09:17;;;;;;;2.35;1.05;;;16.70;41.60;;;;;;6287939;28;20096;-79
2021/05/26 00:12:18;;;;;;;1.85;0.90;;;16.70;41.80;;;;;;6274035;28;20076;-77
2021/05/26 00:15:19;;;;;;;2.30;0.88;;;16.60;42.10;;;;;;6273574;28;20048;-79
2021/05/26 00:18:21;;;;;;;4.45;1.13;;;16.60;42.50;;;;;;6256464;28;20123;-79
2021/05/26 00:21:24;;;;;;;2.42;1.00;;;16.50;42.70;;;;;;6289404;28;20025;-78
2021/05/26 00:24:25;;;;;;;4.35;0.82;;;16.50;43.00;;;;;;6249188;28;20466;-79
2021/05/26 00:27:26;;;;;;;0.88;0.60;;;16.40;43.20;;;;;;6261117;28;20033;-78
2021/05/26 00:30:30;;;;;;;0.68;0.55;;;16.40;43.50;;;;;;6240261;28;20090;-78
2021/05/26 00:33:31;;;;;;;5.45;0.60;;;16.40;43.80;;;;;;6273613;28;20061;-77
2021/05/26 00:36:33;;;;;;;5.68;1.10;;;16.30;43.70;;;;;;6292072;28;20112;-77
2021/05/26 00:39:34;;;;;;;2.95;1.17;;;16.30;43.80;;;;;;6289586;28;20037;-78
2021/05/26 00:42:35;;;;;;;3.15;1.20;;;16.30;43.90;;;;;;6285915;28;20440;-78
2021/05/26 00:45:37;;;;;;;3.90;1.00;;;16.20;44.30;;;;;;6273183;28;20117;-78
2021/05/26 00:48:39;;;;;;;2.42;1.30;;;16.10;44.60;;;;;;6289767;28;20405;-78
2021/05/26 00:51:40;;;;;;;2.13;1.17;;;16.10;44.60;;;;;;6288955;28;20051;-78
2021/05/26 00:54:42;;;;;;;6.13;1.20;;;16.10;44.60;;;;;;6272690;28;20029;-79
2021/05/26 00:57:44;;;;;;;4.60;1.45;;;16.10;44.60;;;;;;6289098;28;20033;-79
2021/05/26 01:00:45;;;;;;;1.65;0.80;;;16.00;44.60;;;;;;6293789;28;20405;-78
2021/05/26 01:03:48;;;;;;;2.33;0.93;;;16.00;44.70;;;;;;6288194;28;20036;-78
2021/05/26 01:06:50;;;;;;;3.13;1.00;;;15.90;44.60;;;;;;6259133;28;20044;-80
2021/05/26 01:09:52;;;;;;;2.28;1.00;;;16.00;44.80;;;;;;6288627;28;20108;-79
2021/05/26 01:12:54;;;;;;;3.05;0.80;;;16.00;45.00;;;;;;6252264;28;20480;-78
2021/05/26 01:15:55;;;;;;;2.92;0.88;;;16.00;45.20;;;;;;6248308;28;20033;-78
2021/05/26 01:19:01;;;;;;;1.90;0.90;;;16.00;45.10;;;;;;6262870;28;20048;-78
2021/05/26 01:22:07;;;;;;;1.77;0.90;;;16.00;45.00;;;;;;6272795;28;20091;-78
2021/05/26 01:25:10;;;;;;;1.85;0.60;;;16.00;44.90;;;;;;6288546;28;20121;-78
2021/05/26 01:28:13;;;;;;;6.43;1.05;;;16.00;44.90;;;;;;6271357;28;20045;-78
2021/05/26 01:31:14;;;;;;;1.48;0.70;;;16.00;45.00;;;;;;6254579;28;20041;-78
2021/05/26 01:34:16;;;;;;;1.33;0.63;;;15.90;45.20;;;;;;6280272;28;20107;-78
2021/05/26 01:37:19;;;;;;;0.70;0.50;;;15.90;45.30;;;;;;6289145;28;20033;-79
2021/05/26 01:40:22;;;;;;;1.95;0.70;;;15.90;45.40;;;;;;6256497;28;20124;-78
2021/05/26 01:43:25;;;;;;;1.40;0.70;;;15.90;45.60;;;;;;6267836;28;20029;-78
2021/05/26 01:46:26;;;;;;;0.60;0.50;;;15.80;45.60;;;;;;6287040;28;20032;-78
2021/05/26 01:49:27;;;;;;;1.45;0.60;;;15.80;45.90;;;;;;6275005;28;20353;-79
2021/05/26 01:52:29;;;;;;;0.43;0.43;;;15.70;46.60;;;;;;6280246;28;20044;-78
2021/05/26 01:55:31;;;;;;;0.57;0.47;;;15.70;46.30;;;;;;6255607;28;20120;-78
2021/05/26 01:58:33;;;;;;;0.77;0.60;;;15.70;46.70;;;;;;6256204;28;20033;-78
2021/05/26 02:01:38;;;;;;;0.85;0.63;;;15.60;46.80;;;;;;6263838;28;20093;-78
2021/05/26 02:04:42;;;;;;;2.30;0.70;;;15.50;46.90;;;;;;6278015;28;20033;-78
2021/05/26 02:07:44;;;;;;;1.63;0.70;;;15.50;47.00;;;;;;6297513;28;20039;-78
2021/05/26 02:14:09;;;;;;;7.15;0.80;;;15.40;47.00;;;;;;6256735;28;20039;-78
2021/05/26 02:17:10;;;;;;;1.75;0.57;;;15.40;47.10;;;;;;6277552;28;20373;-78
2021/05/26 02:20:14;;;;;;;0.60;0.55;;;15.40;47.10;;;;;;6295798;28;20051;-79
2021/05/26 02:23:15;;;;;;;1.75;0.73;;;15.40;47.20;;;;;;6278564;28;20166;-78
2021/05/26 02:26:16;;;;;;;2.33;0.77;;;15.40;47.10;;;;;;6292516;28;20036;-78
2021/05/26 02:29:18;;;;;;;1.30;0.60;;;15.40;46.90;;;;;;6281632;28;20033;-79
2021/05/26 02:32:20;;;;;;;2.05;0.70;;;15.40;46.60;;;;;;6272938;28;20058;-78
2021/05/26 02:35:21;;;;;;;0.90;0.47;;;15.40;46.50;;;;;;6273595;28;20041;-79
2021/05/26 02:38:22;;;;;;;1.20;0.50;;;15.30;46.40;;;;;;6284179;28;20083;-79
2021/05/26 02:41:24;;;;;;;4.10;1.02;;;15.20;46.40;;;;;;6282399;28;20056;-78
2021/05/26 02:44:26;;;;;;;0.50;0.50;;;15.20;46.50;;;;;;6274014;28;20060;-79
2021/05/26 02:47:28;;;;;;;0.45;0.43;;;15.10;46.60;;;;;;6267768;28;20098;-79
2021/05/26 02:50:30;;;;;;;3.42;0.52;;;15.00;46.90;;;;;;6263840;28;20029;-78
2021/05/26 02:53:31;;;;;;;0.90;0.43;;;14.90;47.20;;;;;;6256376;28;20044;-79
2021/05/26 02:56:34;;;;;;;6.05;0.52;;;14.80;47.60;;;;;;6249735;28;20456;-79
2021/05/26 03:00:09;;;;;;;1.90;0.80;;;14.80;47.90;;;;;;6221052;28;20125;-78
2021/05/26 03:03:37;;;;;;;1.25;0.60;;;14.70;48.00;;;;;;6204609;28;20038;-79
2021/05/26 03:06:47;;;;;;;1.40;0.90;;;14.60;48.30;;;;;;6197975;28;20053;-79
2021/05/26 03:09:50;;;;;;;3.25;0.82;;;14.60;48.50;;;;;;6179371;28;20069;-80
2021/05/26 03:12:53;;;;;;;0.95;0.80;;;14.50;48.50;;;;;;6195669;28;20093;-78
2021/05/26 03:15:55;;;;;;;0.93;0.70;;;14.50;48.50;;;;;;6195451;28;20038;-79
2021/05/26 03:18:58;;;;;;;1.92;0.80;;;14.50;48.60;;;;;;6194293;28;20080;-78
2021/05/26 03:22:00;;;;;;;0.70;0.55;;;14.50;48.50;;;;;;6201745;28;20336;-80
2021/05/26 03:25:23;;;;;;;1.00;0.77;;;14.50;48.40;;;;;;6212132;28;20035;-79
2021/05/26 03:28:32;;;;;;;0.82;0.57;;;14.40;48.40;;;;;;6181864;28;20364;-78
2021/05/26 03:31:34;;;;;;;0.75;0.57;;;14.40;48.60;;;;;;6213246;28;20192;-77
2021/05/26 03:34:36;;;;;;;1.23;0.70;;;14.40;48.60;;;;;;6200950;28;20059;-77
2021/05/26 03:37:38;;;;;;;0.77;0.60;;;14.40;48.60;;;;;;6255017;28;20033;-79
2021/05/26 03:40:39;;;;;;;11.70;0.90;;;14.40;48.60;;;;;;6261862;28;20030;-78
2021/05/26 03:43:42;;;;;;;3.40;0.80;;;14.40;48.40;;;;;;6244812;28;20059;-77
2021/05/26 03:46:44;;;;;;;1.95;0.60;;;14.40;48.30;;;;;;6238186;28;20034;-78
2021/05/26 03:49:46;;;;;;;0.35;0.35;;;14.40;48.30;;;;;;6239456;28;20179;-78
2021/05/26 03:52:48;;;;;;;3.53;0.80;;;14.40;48.40;;;;;;6244174;28;20177;-79
2021/05/26 03:55:49;;;;;;;3.60;0.98;;;14.40;48.40;;;;;;6261513;28;20116;-78
2021/05/26 03:59:06;;;;;;;1.85;0.80;;;14.40;48.40;;;;;;6245694;28;20037;-78
2021/05/26 04:02:09;;;;;;;5.60;0.60;;;14.40;48.60;;;;;;6229070;28;20034;-77
2021/05/26 04:05:11;;;;;;;4.22;0.75;;;14.40;48.50;;;;;;6237747;28;20353;-77
2021/05/26 04:08:12;;;;;;;2.33;0.88;;;14.30;48.60;;;;;;6243844;28;20038;-78
2021/05/26 04:11:14;;;;;;;0.63;0.63;;;14.30;48.60;;;;;;6244668;28;20072;-77
2021/05/26 04:14:44;;;;;;;0.73;0.52;;;14.30;48.80;;;;;;6215426;28;20034;-78
2021/05/26 04:18:24;;;;;;;1.10;0.68;;;14.30;48.90;;;;;;6120118;29;20103;-78
2021/05/26 04:21:25;;;;;;;2.83;0.68;;;14.30;49.00;;;;;;6119877;29;20040;-78
2021/05/26 04:24:26;;;;;;;1.63;1.10;;;14.30;49.20;;;;;;6105981;29;20035;-78
2021/05/26 04:27:30;;;;;;;2.15;0.85;;;14.20;49.10;;;;;;6131374;29;20040;-77
2021/05/26 04:30:31;;;;;;;6.95;0.85;;;14.20;49.30;;;;;;6110357;29;20040;-78
2021/05/26 04:33:32;;;;;;;1.85;0.80;;;14.20;49.40;;;;;;6119039;29;21391;-77
2021/05/26 04:36:33;;;;;;;2.00;1.02;;;14.30;49.40;;;;;;6124884;29;20060;-78
2021/05/26 04:39:35;;;;;;;3.13;0.88;;;14.20;49.50;;;;;;6106612;29;20043;-78
2021/05/26 04:42:37;;;;;;;1.55;0.85;;;14.30;49.50;;;;;;6090134;29;20439;-78
2021/05/26 04:45:40;;;;;;;0.75;0.55;;;14.20;49.50;;;;;;6112072;29;20110;-79
2021/05/26 04:48:41;;;;;;;1.55;0.90;;;14.20;49.50;;;;;;6149580;28;20038;-78
2021/05/26 04:51:42;;;;;;;3.35;1.25;;;14.20;49.50;;;;;;6224670;28;20057;-78
2021/05/26 04:54:43;;;;;;;2.00;0.82;;;14.30;49.50;;;;;;6232941;28;20442;-79
2021/05/26 04:57:45;;;;;;;2.45;1.17;;;14.30;49.30;;;;;;6245656;28;20084;-78
2021/05/26 05:00:47;;;;;;;3.95;1.08;;;14.30;49.30;;;;;;6224382;28;20458;-79
2021/05/26 05:03:48;;;;;;;3.13;1.13;;;14.40;49.00;;;;;;6235987;28;20064;-78
2021/05/26 05:06:49;;;;;;;3.15;1.20;;;14.40;48.80;;;;;;6228474;28;20061;-78
2021/05/26 05:09:50;;;;;;;2.95;1.00;;;14.50;48.70;;;;;;6228691;28;20529;-78
2021/05/26 05:12:52;;;;;;;3.33;1.20;;;14.50;48.60;;;;;;6223983;28;20037;-78
2021/05/26 05:15:53;;;;;;;5.35;0.98;;;14.50;48.60;;;;;;6220247;28;20049;-78
2021/05/26 05:18:55;;;;;;;4.63;1.25;;;14.50;48.70;;;;;;6239546;28;20052;-80
2021/05/26 05:21:57;;;;;;;1.48;1.00;;;14.50;48.70;;;;;;6240296;28;20057;-80
2021/05/26 05:24:58;;;;;;;6.70;1.23;;;14.50;48.70;;;;;;6217578;28;20038;-79
2021/05/26 05:27:59;;;;;;;1.80;1.10;;;14.60;49.30;;;;;;6249970;28;20037;-83
2021/05/26 05:31:04;;;;;;;4.20;1.42;;;14.70;49.60;;;;;;6248103;28;20499;-81
2021/05/26 05:34:06;;;;;;;1.95;1.00;;;14.70;49.80;;;;;;6285973;28;20037;-80
2021/05/26 05:37:07;;;;;;;1.90;1.00;;;14.70;49.90;;;;;;6269452;28;20037;-79
2021/05/26 05:40:10;;;;;;;2.38;0.93;;;14.70;50.10;;;;;;6274314;28;20032;-78
2021/05/26 05:43:12;;;;;;;6.72;1.10;;;14.70;50.20;;;;;;6282059;28;20153;-78
2021/05/26 05:46:13;;;;;;;3.67;1.33;;;14.70;50.10;;;;;;6253016;28;20366;-77
2021/05/26 05:49:14;;;;;;;2.10;1.20;;;14.80;50.00;;;;;;6279567;28;20024;-75
2021/05/26 05:52:15;;;;;;;3.85;0.90;;;14.80;50.00;;;;;;6237744;28;20041;-77
2021/05/26 05:55:17;;;;;;;2.75;1.52;;;14.90;49.90;;;;;;6251243;28;20125;-77
2021/05/26 05:58:28;;;;;;;3.67;1.17;;;14.90;49.90;;;;;;6272971;28;20037;-76
2021/05/26 06:01:29;;;;;;;2.15;1.33;;;14.90;50.00;;;;;;6275782;28;20531;-76
2021/05/26 06:04:30;;;;;;;3.08;1.10;;;14.90;49.80;;;;;;6290833;28;20044;-75
2021/05/26 06:07:32;;;;;;;3.28;1.33;;;15.00;49.60;;;;;;6296089;28;20052;-75
2021/05/26 06:14:54;;;;;;;2.05;0.85;;;15.20;48.50;;;;;;6274212;28;20037;-75
2021/05/26 06:17:59;;;;;;;4.07;1.08;;;15.20;47.90;;;;;;6263562;28;20052;-73
2021/05/26 06:21:01;;;;;;;1.83;0.80;;;15.30;47.80;;;;;;6258137;28;20029;-75
2021/05/26 06:24:03;;;;;;;9.25;1.30;;;15.30;47.70;;;;;;6251843;28;20101;-77
2021/05/26 06:27:05;;;;;;;4.10;0.80;;;15.50;47.70;;;;;;6279921;28;20040;-77
2021/05/26 06:30:07;;;;;;;3.42;1.00;;;15.60;47.70;;;;;;6277979;28;20028;-76
2021/05/26 06:33:08;;;;;;;1.80;1.00;;;15.70;47.30;;;;;;6297233;28;20070;-76
2021/05/26 06:36:10;;;;;;;2.17;0.82;;;15.80;47.20;;;;;;6298143;28;20040;-76
2021/05/26 06:39:11;;;;;;;3.08;1.30;;;15.90;47.00;;;;;;6276903;28;20047;-76
2021/05/26 06:42:12;;;;;;;2.15;0.90;;;16.00;46.90;;;;;;6277662;28;20037;-77
2021/05/26 06:45:13;;;;;;;50.15;4.57;;;16.00;46.90;;;;;;6263353;28;20033;-77
2021/05/26 06:48:15;;;;;;;22.35;2.80;;;16.00;47.00;;;;;;6260251;28;20037;-77
2021/05/26 06:51:16;;;;;;;11.57;1.73;;;16.10;47.30;;;;;;6282612;28;20032;-77
2021/05/26 06:54:17;;;;;;;7.22;1.30;;;16.20;47.30;;;;;;6281820;28;20097;-78
2021/05/26 06:57:18;;;;;;;9.65;2.10;;;16.30;47.20;;;;;;6299069;28;20039;-79
2021/05/26 07:00:19;;;;;;;20.27;2.50;;;16.40;46.80;;;;;;6297842;28;20441;-76
2021/05/26 07:03:25;;;;;;;19.25;3.00;;;16.50;46.50;;;;;;6290097;28;20349;-84
2021/05/26 07:06:27;;;;;;;21.75;1.90;;;16.70;46.20;;;;;;6276999;28;20120;-77
2021/05/26 07:09:28;;;;;;;17.23;2.00;;;16.80;46.00;;;;;;6280685;28;20032;-75
2021/05/26 07:12:30;;;;;;;2.95;1.00;;;16.90;45.50;;;;;;6297027;28;20060;-76
2021/05/26 07:15:31;;;;;;;10.48;1.55;;;17.00;45.40;;;;;;6273503;28;20040;-76
2021/05/26 07:18:33;;;;;;;7.80;1.30;;;17.10;45.20;;;;;;6255111;28;20037;-76
2021/05/26 07:21:35;;;;;;;1.75;1.10;;;17.20;45.10;;;;;;6295326;28;20036;-76
2021/05/26 07:24:37;;;;;;;1.65;0.65;;;17.30;44.80;;;;;;6281018;28;20331;-76
2021/05/26 07:27:38;;;;;;;6.47;1.65;;;17.40;44.60;;;;;;6280732;28;20067;-77
2021/05/26 07:30:40;;;;;;;2.75;0.90;;;17.60;44.40;;;;;;6271900;28;20102;-76
2021/05/26 07:33:41;;;;;;;1.48;0.90;;;17.70;43.80;;;;;;6275149;28;20079;-76
2021/05/26 07:36:42;;;;;;;3.38;1.00;;;17.80;43.50;;;;;;6258012;28;20025;-77
2021/05/26 07:39:43;;;;;;;11.02;1.58;;;17.90;43.10;;;;;;6240060;28;20474;-76
2021/05/26 07:42:44;;;;;;;12.18;1.83;;;18.00;42.90;;;;;;6296993;28;20040;-76
2021/05/26 07:45:45;;;;;;;2.00;0.90;;;18.20;42.70;;;;;;6265198;28;20462;-77
2021/05/26 07:48:51;;;;;;;4.32;1.05;;;18.30;42.30;;;;;;6280785;28;20135;-77
2021/05/26 07:51:55;;;;;;;1.70;0.73;;;18.50;41.90;;;;;;6295935;28;20128;-78
2021/05/26 07:54:56;;;;;;;5.13;1.42;;;18.60;41.50;;;;;;6262207;28;20041;-78
2021/05/26 07:57:57;;;;;;;2.10;0.90;;;18.80;41.70;;;;;;6279554;28;20068;-76
2021/05/26 08:00:59;;;;;;;2.45;1.23;;;18.90;40.70;;;;;;6278865;28;20090;-75
2021/05/26 08:03:59;;;;;;;4.50;0.80;;;19.10;40.40;;;;;;6297494;28;20470;-75
2021/05/26 08:07:01;;;;;;;6.32;1.00;;;19.20;39.50;;;;;;6282963;28;20414;-77
2021/05/26 08:10:03;;;;;;;7.78;1.60;;;19.40;39.30;;;;;;6243886;28;20033;-76
2021/05/26 08:13:04;;;;;;;3.08;1.05;;;19.50;39.10;;;;;;6289589;28;20098;-76
2021/05/26 08:16:06;;;;;;;9.10;1.05;;;19.80;38.80;;;;;;6299159;28;20032;-77
2021/05/26 08:19:07;;;;;;;2.67;0.77;;;20.00;38.40;;;;;;6301413;28;20062;-77
2021/05/26 08:22:08;;;;;;;6.97;1.08;;;20.20;37.80;;;;;;6300524;28;20032;-76
2021/05/26 08:25:10;;;;;;;8.55;0.93;;;20.30;37.30;;;;;;6300702;28;20534;-77
2021/05/26 08:28:11;;;;;;;3.45;1.00;;;20.50;37.10;;;;;;6304381;28;20036;-77
2021/05/26 08:31:12;;;;;;;4.65;1.02;;;20.60;36.70;;;;;;6278048;28;20477;-79
2021/05/26 08:34:13;;;;;;;3.05;0.90;;;20.70;35.80;;;;;;6290192;28;20090;-77
2021/05/26 08:37:14;;;;;;;1.00;0.70;;;20.70;35.60;;;;;;6297845;28;20365;-77
2021/05/26 08:40:16;;;;;;;1.20;0.70;;;20.80;35.40;;;;;;6295902;28;20141;-76
2021/05/26 08:43:17;;;;;;;2.92;1.00;;;20.90;35.30;;;;;;6296689;28;20037;-78
2021/05/26 08:46:21;;;;;;;4.50;0.80;;;21.00;35.30;;;;;;6295570;28;20081;-76
2021/05/26 08:49:22;;;;;;;2.13;0.65;;;21.00;34.80;;;;;;6284495;28;20053;-80
2021/05/26 08:52:23;;;;;;;5.75;0.88;;;21.10;34.50;;;;;;6286742;28;20131;-78
2021/05/26 08:55:25;;;;;;;9.18;0.93;;;21.00;34.40;;;;;;6280392;28;20042;-83
2021/05/26 08:58:27;;;;;;;6.80;1.27;;;21.00;34.50;;;;;;6297500;28;20513;-80
2021/05/26 09:01:28;;;;;;;5.72;0.98;;;21.20;34.20;;;;;;6283318;28;20055;-79
2021/05/26 09:04:38;;;;;;;0.85;0.55;;;21.30;33.90;;;;;;6278621;28;20032;-78
2021/05/26 09:07:39;;;;;;;2.35;1.08;;;21.40;33.00;;;;;;6299938;28;20101;-80
2021/05/26 09:11:06;;;;;;;3.08;0.65;;;21.50;32.40;;;;;;6297497;28;20395;-79
2021/05/26 09:14:12;;;;;;;2.08;0.90;;;21.40;32.30;;;;;;6289245;28;20428;-79
2021/05/26 09:17:13;;;;;;;4.25;1.17;;;21.50;32.40;;;;;;6285223;28;20037;-79
2021/05/26 09:20:14;;;;;;;3.03;0.90;;;21.50;32.50;;;;;;6281290;28;20051;-79
2021/05/26 09:23:18;;;;;;;6.35;1.25;;;21.70;32.20;;;;;;6300384;28;20036;-80
2021/05/26 09:26:19;;;;;;;3.40;1.17;;;21.70;31.80;;;;;;6283229;28;20100;-77
2021/05/26 09:29:31;;;;;;;2.65;0.95;;;21.80;32.20;;;;;;6282461;28;20029;-78
2021/05/26 09:32:34;;;;;;;3.30;1.50;;;21.80;31.20;;;;;;6277284;28;20048;-78
2021/05/26 09:35:35;;;;;;;3.28;1.15;;;21.90;31.10;;;;;;6249692;28;20040;-78
2021/05/26 09:38:44;;;;;;;4.65;1.35;;;21.90;31.20;;;;;;6253190;28;20084;-79
2021/05/26 09:41:46;;;;;;;2.83;0.60;;;21.90;31.10;;;;;;6281570;28;20136;-78
2021/05/26 09:45:13;;;;;;;4.45;0.82;;;22.10;30.70;;;;;;6274786;28;20431;-78
2021/05/26 09:48:15;;;;;;;1.30;0.63;;;22.20;30.30;;;;;;6278410;28;20050;-78
2021/05/26 09:51:27;;;;;;;3.45;0.55;;;22.20;30.00;;;;;;6285807;28;20453;-77
2021/05/26 09:54:28;;;;;;;2.95;1.00;;;22.20;30.00;;;;;;6274511;28;20470;-77
2021/05/26 09:57:29;;;;;;;6.90;0.73;;;22.30;29.70;;;;;;6286815;28;20040;-78
2021/05/26 10:00:32;;;;;;;2.15;0.47;;;22.30;29.50;;;;;;6300947;28;20047;-78
2021/05/26 10:03:35;;;;;;;2.60;0.65;;;22.30;29.40;;;;;;6295404;28;20029;-79
2021/05/26 10:06:43;;;;;;;2.28;0.70;;;22.30;29.40;;;;;;6293112;28;20032;-79
2021/05/26 10:10:08;;;;;;;1.38;0.70;;;22.40;29.40;;;;;;6288230;28;20041;-79
2021/05/26 10:13:33;;;;;;;5.65;1.20;;;22.60;29.10;;;;;;6261719;28;20070;-79
2021/05/26 10:16:40;;;;;;;2.35;0.60;;;22.60;29.00;;;;;;6254586;28;20056;-78
2021/05/26 10:19:41;;;;;;;3.58;0.63;;;22.70;29.10;;;;;;6294496;28;20366;-78
2021/05/26 10:22:46;;;;;;;2.60;0.60;;;22.80;28.80;;;;;;6281820;28;20036;-79
2021/05/26 10:25:48;;;;;;;1.73;0.50;;;22.90;28.80;;;;;;6272809;28;20033;-79
2021/05/26 10:28:49;;;;;;;8.63;0.60;;;23.00;29.20;;;;;;6281172;28;20066;-80
2021/05/26 10:31:51;;;;;;;1.33;0.60;;;23.00;28.60;;;;;;6254879;28;20124;-78
2021/05/26 10:34:55;;;;;;;2.28;0.80;;;23.10;28.70;;;;;;6298335;28;20119;-79
2021/05/26 10:37:58;;;;;;;2.33;0.80;;;23.20;28.70;;;;;;6282387;28;20036;-77
2021/05/26 10:41:01;;;;;;;12.80;0.73;;;23.30;28.80;;;;;;6273367;28;20108;-77
2021/05/26 10:44:03;;;;;;;2.45;0.68;;;23.40;28.80;;;;;;6280108;28;20121;-77
2021/05/26 10:47:35;;;;;;;2.05;0.85;;;23.40;28.60;;;;;;6296704;28;20048;-77
2021/05/26 10:50:52;;;;;;;0.98;0.45;;;23.50;28.70;;;;;;6270692;28;20161;-77
2021/05/26 10:53:53;;;;;;;1.15;0.57;;;23.60;28.50;;;;;;6291849;28;20032;-77
2021/05/26 10:57:01;;;;;;;2.80;0.47;;;23.80;28.30;;;;;;6276778;28;20029;-77
2021/05/26 11:00:22;;;;;;;1.35;0.77;;;24.20;28.00;;;;;;6274448;28;20039;-78
2021/05/26 11:06:28;;;;;;;2.83;0.82;;;27.00;26.10;;;;;;6278631;28;20085;-78
2021/05/26 11:09:54;;;;;;;2.08;0.70;;;28.10;24.90;;;;;;6265795;28;20041;-79
2021/05/26 11:12:55;;;;;;;7.00;0.70;;;29.20;24.30;;;;;;6244007;28;20052;-78
2021/05/26 11:15:57;;;;;;;1.83;0.55;;;29.80;23.50;;;;;;6246641;28;20092;-78
2021/05/26 11:19:01;;;;;;;2.08;1.00;;;30.40;23.10;;;;;;6236850;28;20116;-77
2021/05/26 11:22:04;;;;;;;2.50;0.80;;;30.90;22.60;;;;;;6295026;28;20043;-77
2021/05/26 11:25:08;;;;;;;9.30;0.90;;;31.30;22.10;;;;;;6270535;28;20461;-78
2021/05/26 11:28:09;;;;;;;5.50;0.65;;;31.70;21.90;;;;;;6254468;28;20044;-77
2021/05/26 11:31:11;;;;;;;1.23;0.50;;;32.10;21.40;;;;;;6288431;28;20099;-77
2021/05/26 11:34:12;;;;;;;4.97;0.70;;;32.50;21.10;;;;;;6266853;28;20075;-77
2021/05/26 11:37:30;;;;;;;3.25;0.60;;;32.80;20.90;;;;;;6271810;28;20044;-79
2021/05/26 11:40:33;;;;;;;4.05;0.60;;;32.90;20.40;;;;;;6266676;28;20029;-78
2021/05/26 11:43:35;;;;;;;2.30;0.52;;;32.90;20.20;;;;;;6265366;28;20036;-78
2021/05/26 11:46:36;;;;;;;18.05;1.10;;;32.80;20.10;;;;;;6249969;28;20119;-77
2021/05/26 11:49:42;;;;;;;2.22;0.50;;;32.90;20.20;;;;;;6278737;28;20124;-78
2021/05/26 11:53:14;;;;;;;1.00;0.50;;;33.10;20.20;;;;;;6261607;28;20045;-76
2021/05/26 11:56:15;;;;;;;0.63;0.50;;;33.20;19.70;;;;;;6150421;28;20066;-76
2021/05/26 11:59:25;;;;;;;3.60;0.82;;;33.40;19.40;;;;;;6190397;28;20038;-77
2021/05/26 12:02:27;;;;;;;1.08;0.60;;;33.40;19.40;;;;;;6177017;28;20057;-77
2021/05/26 12:05:39;;;;;;;1.10;0.40;;;33.60;19.10;;;;;;6174688;28;20034;-76
2021/05/26 12:08:43;;;;;;;0.90;0.40;;;33.40;18.70;;;;;;6176686;28;20043;-77
2021/05/26 12:11:45;;;;;;;6.05;0.45;;;33.40;18.80;;;;;;6176190;28;20034;-77
2021/05/26 12:14:47;;;;;;;1.70;0.50;;;33.30;18.30;;;;;;6183783;28;20034;-77
2021/05/26 12:17:48;;;;;;;1.58;0.40;;;33.30;18.30;;;;;;6193880;28;20448;-77
2021/05/26 12:20:52;;;;;;;0.68;0.60;;;33.20;18.30;;;;;;6190869;28;20487;-77
2021/05/26 12:24:01;;;;;;;2.25;0.60;;;33.10;18.10;;;;;;6172950;28;20399;-77
2021/05/26 12:27:02;;;;;;;0.63;0.50;;;33.10;18.40;;;;;;6181278;28;20034;-76
2021/05/26 12:30:20;;;;;;;3.67;0.82;;;33.20;18.30;;;;;;6191590;28;20359;-76
2021/05/26 12:33:26;;;;;;;1.02;0.50;;;33.30;18.10;;;;;;6258807;28;20081;-76
2021/05/26 12:36:29;;;;;;;0.85;0.50;;;33.50;17.90;;;;;;6290436;28;20039;-78
2021/05/26 12:39:40;;;;;;;2.40;0.50;;;33.60;17.80;;;;;;6291062;28;20060;-78
2021/05/26 12:42:42;;;;;;;0.68;0.57;;;33.80;17.60;;;;;;6286612;28;20422;-77
2021/05/26 12:45:43;;;;;;;0.47;0.40;;;33.80;17.30;;;;;;6274074;28;20044;-77
2021/05/26 12:48:45;;;;;;;1.35;0.63;;;33.90;17.20;;;;;;6273881;28;20036;-78
2021/05/26 12:51:47;;;;;;;8.55;0.80;;;34.10;17.30;;;;;;6261265;28;20097;-76
2021/05/26 12:54:49;;;;;;;5.03;0.82;;;34.30;17.10;;;;;;6292084;28;20031;-77
2021/05/26 12:57:59;;;;;;;12.07;1.38;;;34.70;17.00;;;;;;6278030;28;20102;-77
2021/05/26 13:01:09;;;;;;;1.10;0.50;;;35.10;16.50;;;;;;6291431;28;20040;-77
2021/05/26 13:04:16;;;;;;;2.55;0.65;;;35.50;16.30;;;;;;6276984;28;20454;-79
2021/05/26 13:07:43;;;;;;;5.03;0.40;;;35.70;16.10;;;;;;6284675;28;20036;-77
2021/05/26 13:10:56;;;;;;;0.45;0.32;;;35.90;16.10;;;;;;6285919;28;20381;-79
2021/05/26 13:13:57;;;;;;;0.50;0.30;;;36.50;15.90;;;;;;6273613;28;20032;-77
2021/05/26 13:16:59;;;;;;;0.47;0.30;;;36.80;15.30;;;;;;6278620;28;20056;-78
2021/05/26 13:20:15;;;;;;;1.02;0.63;;;37.20;15.10;;;;;;6288095;28;20036;-77
2021/05/26 13:23:17;;;;;;;46.50;3.08;;;37.90;15.00;;;;;;6241240;28;20037;-79
2021/05/26 13:26:18;;;;;;;3.28;0.55;;;38.10;14.70;;;;;;6274694;28;20040;-79
2021/05/26 13:29:19;;;;;;;0.70;0.28;;;38.50;14.60;;;;;;6277204;28;20477;-79
2021/05/26 13:32:20;;;;;;;1.35;0.40;;;38.80;14.40;;;;;;6265058;28;20045;-78
2021/05/26 13:35:25;;;;;;;0.75;0.40;;;39.10;14.20;;;;;;6247129;28;20037;-85
2021/05/26 13:38:27;;;;;;;3.60;0.60;;;39.40;13.90;;;;;;6262262;28;20041;-84
2021/05/26 13:41:28;;;;;;;4.75;0.50;;;39.40;13.90;;;;;;6267594;28;20033;-85
2021/05/26 13:44:29;;;;;;;3.80;0.32;;;39.50;14.00;;;;;;6252363;28;20048;-84
2021/05/26 13:47:31;;;;;;;2.53;0.60;;;39.70;13.90;;;;;;6208897;28;20046;-83
2021/05/26 13:50:37;;;;;;;1.33;0.60;;;39.70;13.90;;;;;;6248989;28;20100;-85
2021/05/26 13:53:42;;;;;;;1.40;0.60;;;39.80;14.00;;;;;;6258970;28;20128;-83
2021/05/26 13:56:43;;;;;;;1.63;0.60;;;40.10;13.80;;;;;;6238661;28;20098;-83
2021/05/26 13:59:44;;;;;;;1.45;0.40;;;40.20;13.50;;;;;;6244350;28;20430;-83
2021/05/26 14:02:45;;;;;;;2.08;0.35;;;40.30;13.60;;;;;;6221593;28;20079;-83
2021/05/26 14:05:47;;;;;;;0.30;0.30;;;40.30;13.40;;;;;;6223071;28;20037;-83
2021/05/26 14:08:48;;;;;;;0.80;0.50;;;40.30;13.30;;;;;;6235616;28;20037;-82
2021/05/26 14:11:52;;;;;;;0.85;0.40;;;40.40;13.40;;;;;;6230183;28;20056;-82
2021/05/26 14:19:24;;;;;;;0.73;0.30;;;40.50;13.30;;;;;;6017919;28;20709;-83
2021/05/26 14:22:27;;;;;;;0.40;0.32;;;40.50;13.40;;;;;;6083956;28;20046;-83
2021/05/26 14:25:30;;;;;;;0.77;0.50;;;40.50;13.40;;;;;;6163738;28;20034;-82
2021/05/26 14:28:31;;;;;;;0.73;0.40;;;40.50;13.50;;;;;;6166439;28;20093;-84
2021/05/26 14:31:36;;;;;;;0.90;0.60;;;40.30;13.60;;;;;;6178464;28;20058;-88
2021/05/26 14:34:39;;;;;;;3.05;1.08;;;40.30;13.80;;;;;;6151025;28;20047;-84
2021/05/26 14:37:46;;;;;;;1.13;0.50;;;40.20;13.70;;;;;;6168324;28;20046;-84
2021/05/26 14:40:48;;;;;;;1.15;0.52;;;40.10;13.70;;;;;;6167728;28;20034;-84
2021/05/26 14:43:49;;;;;;;2.47;0.95;;;39.80;13.80;;;;;;6175548;28;20038;-84
2021/05/26 14:46:50;;;;;;;2.15;0.60;;;39.90;13.80;;;;;;6194322;28;20053;-84
2021/05/26 14:49:52;;;;;;;1.05;0.63;;;39.90;13.70;;;;;;6156635;28;20480;-84
2021/05/26 14:52:53;;;;;;;3.95;0.50;;;39.90;13.90;;;;;;6174299;28;25189;-84
2021/05/26 14:55:54;;;;;;;0.50;0.35;;;40.10;13.90;;;;;;6206761;28;20041;-83
2021/05/26 14:58:56;;;;;;;1.92;0.50;;;40.10;13.70;;;;;;6245520;28;20068;-84
2021/05/26 15:01:57;;;;;;;1.15;0.50;;;39.90;13.80;;;;;;6205984;28;20057;-85
2021/05/26 15:04:58;;;;;;;1.58;0.60;;;39.30;14.10;;;;;;6192338;28;20435;-85
2021/05/26 15:08:00;;;;;;;0.98;0.60;;;37.80;15.00;;;;;;6215251;28;20033;-84
2021/05/26 15:11:03;;;;;;;2.13;0.47;;;36.40;16.00;;;;;;6215141;28;20068;-85
2021/05/26 15:14:04;;;;;;;2.25;0.50;;;35.10;16.80;;;;;;6231491;28;20033;-82
2021/05/26 15:17:05;;;;;;;2.80;0.50;;;34.40;17.40;;;;;;6221628;28;20482;-83
2021/05/26 15:20:07;;;;;;;2.20;0.80;;;34.60;17.30;;;;;;6237017;28;20052;-81
2021/05/26 15:23:12;;;;;;;1.67;0.47;;;35.20;17.00;;;;;;6225881;28;20113;-83
2021/05/26 15:26:13;;;;;;;8.00;0.50;;;35.50;16.70;;;;;;6247513;28;20030;-82
2021/05/26 15:29:16;;;;;;;1.88;0.70;;;35.80;16.60;;;;;;6252176;28;20087;-83
2021/05/26 15:32:17;;;;;;;2.30;0.50;;;36.00;16.60;;;;;;6235250;28;20388;-83
2021/05/26 15:35:18;;;;;;;0.55;0.50;;;36.10;16.40;;;;;;6230388;28;20378;-83
2021/05/26 15:38:20;;;;;;;2.45;0.70;;;36.30;16.20;;;;;;6262762;28;20044;-82
2021/05/26 15:41:22;;;;;;;2.25;0.80;;;36.40;16.10;;;;;;6267988;28;20455;-82
2021/05/26 15:44:23;;;;;;;1.33;0.40;;;36.60;16.00;;;;;;6271089;28;20029;-82
2021/05/26 15:47:26;;;;;;;1.73;0.45;;;36.80;15.80;;;;;;6235996;28;20041;-81
2021/05/26 15:50:28;;;;;;;3.67;0.50;;;36.80;15.60;;;;;;6234335;28;20088;-83
2021/05/26 15:53:31;;;;;;;4.45;0.70;;;36.60;15.80;;;;;;6238383;28;20041;-82
2021/05/26 15:56:32;;;;;;;6.95;0.70;;;36.10;16.10;;;;;;6248734;28;20059;-84
2021/05/26 15:59:33;;;;;;;1.30;0.60;;;35.90;16.40;;;;;;6267349;28;20040;-82
2021/05/26 16:02:36;;;;;;;3.53;0.70;;;35.70;16.90;;;;;;6292650;28;20032;-82
2021/05/26 16:05:39;;;;;;;3.45;0.60;;;35.70;16.60;;;;;;6256612;28;20372;-82
2021/05/26 16:08:40;;;;;;;0.82;0.40;;;35.60;16.60;;;;;;6270809;28;20029;-83